createdAt,value
2022-10-03T00:01:13.327Z,59.06
2022-10-03T00:05:12.696Z,59.17
2022-10-03T00:09:17.122Z,59.20
2022-10-03T00:12:56.528Z,59.26
2022-10-03T00:16:55.461Z,59.51
2022-10-03T00:20:39.493Z,59.44
2022-10-03T00:24:44.459Z,59.44
2022-10-03T00:28:24.525Z,59.37
2022-10-03T00:32:32.959Z,59.13
2022-10-03T00:36:30.142Z,59.01
2022-10-03T00:40:36.937Z,58.85
2022-10-03T00:44:52.234Z,58.53
2022-10-03T00:48:50.152Z,58.39
2022-10-03T00:52:43.130Z,58.25
2022-10-03T00:57:20.854Z,58.22
2022-10-03T01:01:20.465Z,58.17
2022-10-03T01:05:12.471Z,58.26
2022-10-03T01:09:06.877Z,58.44
2022-10-03T01:13:04.280Z,58.44
2022-10-03T01:16:58.063Z,58.39
2022-10-03T01:20:52.398Z,58.23
2022-10-03T01:24:57.712Z,58.36
2022-10-03T01:28:49.280Z,58.29
2022-10-03T01:32:59.163Z,58.32
2022-10-03T01:36:58.067Z,58.21
2022-10-03T01:41:18.030Z,58.31
2022-10-03T01:44:41.866Z,58.43
2022-10-03T01:48:53.802Z,58.40
2022-10-03T01:53:01.985Z,58.36
2022-10-03T01:56:56.711Z,58.52
2022-10-03T02:01:05.249Z,58.52
2022-10-03T02:04:48.342Z,58.41
2022-10-03T02:09:00.620Z,58.39
2022-10-03T02:12:48.714Z,58.21
2022-10-03T02:17:06.747Z,58.21
2022-10-03T02:20:52.102Z,58.09
2022-10-03T02:24:51.048Z,58.19
2022-10-03T02:29:05.089Z,58.10
2022-10-03T02:32:59.274Z,58.19
2022-10-03T02:36:44.512Z,58.47
2022-10-03T02:41:08.454Z,58.76
2022-10-03T02:44:51.613Z,59.05
2022-10-03T02:49:03.316Z,59.40
2022-10-03T02:53:24.600Z,59.62
2022-10-03T02:57:24.777Z,59.80
2022-10-03T03:01:43.299Z,60.03
2022-10-03T03:05:34.833Z,60.28
2022-10-03T03:10:15.528Z,60.50
2022-10-03T03:14:33.475Z,60.59
2022-10-03T03:19:00.786Z,60.67
2022-10-03T03:23:17.091Z,60.78
2022-10-03T03:27:22.617Z,60.78
2022-10-03T03:31:09.488Z,60.83
2022-10-03T03:35:27.200Z,60.94
2022-10-03T03:39:35.316Z,61.10
2022-10-03T03:43:34.568Z,61.05
2022-10-03T03:47:14.025Z,60.99
2022-10-03T03:51:04.048Z,60.99
2022-10-03T03:54:55.453Z,60.94
2022-10-03T03:58:36.661Z,60.95
2022-10-03T04:02:33.488Z,60.88
2022-10-03T04:06:22.875Z,60.92
2022-10-03T04:10:18.553Z,60.76
2022-10-03T04:14:32.432Z,60.70
2022-10-03T04:18:22.161Z,60.58
2022-10-03T04:22:04.811Z,60.55
2022-10-03T04:26:10.288Z,60.38
2022-10-03T04:30:03.323Z,60.37
2022-10-03T04:34:00.607Z,60.27
2022-10-03T04:38:00.100Z,60.20
2022-10-03T04:42:02.423Z,60.19
2022-10-03T04:45:57.812Z,60.15
2022-10-03T04:49:47.870Z,60.04
2022-10-03T04:53:35.135Z,60.04
2022-10-03T04:57:31.883Z,59.94
2022-10-03T05:01:34.112Z,60.00
2022-10-03T05:05:44.898Z,59.87
2022-10-03T05:09:37.769Z,59.81
2022-10-03T05:13:51.273Z,59.87
2022-10-03T05:17:52.392Z,59.71
2022-10-03T05:21:50.741Z,59.71
2022-10-03T05:25:33.506Z,59.84
2022-10-03T05:29:37.017Z,59.79
2022-10-03T05:33:46.596Z,59.64
2022-10-03T05:37:58.501Z,59.27
2022-10-03T05:41:39.099Z,59.23
2022-10-03T05:45:40.399Z,58.78
2022-10-03T05:49:30.748Z,58.67
2022-10-03T05:53:58.436Z,58.43
2022-10-03T05:58:11.745Z,58.13
2022-10-03T06:01:56.102Z,58.13
2022-10-03T06:05:16.751Z,57.99
2022-10-03T06:09:35.900Z,57.81
2022-10-03T06:13:08.179Z,57.46
2022-10-03T06:16:46.882Z,57.42
2022-10-03T06:20:55.069Z,57.06
2022-10-03T06:24:32.009Z,57.10
2022-10-03T06:28:17.303Z,56.65
2022-10-03T06:32:20.890Z,56.45
2022-10-03T06:36:19.508Z,56.40
2022-10-03T06:39:35.013Z,56.31
2022-10-03T06:43:29.562Z,56.57
2022-10-03T06:47:07.437Z,56.04
2022-10-03T06:50:46.246Z,56.01
2022-10-03T06:54:47.050Z,55.69
2022-10-03T06:58:47.163Z,55.55
2022-10-03T07:02:53.493Z,55.63
2022-10-03T07:07:01.753Z,55.25
2022-10-03T07:10:42.408Z,55.19
2022-10-03T07:14:43.145Z,55.08
2022-10-03T07:19:04.743Z,54.94
2022-10-03T07:22:44.889Z,54.86
2022-10-03T07:26:45.997Z,54.72
2022-10-03T07:30:24.931Z,54.47
2022-10-03T07:34:43.269Z,54.59
2022-10-03T07:38:50.750Z,54.58
2022-10-03T07:42:36.521Z,54.65
2022-10-03T07:46:42.702Z,54.76
2022-10-03T07:50:38.753Z,54.80
2022-10-03T07:54:38.494Z,55.06
2022-10-03T07:58:34.450Z,55.30
2022-10-03T08:02:29.532Z,55.35
2022-10-03T08:06:15.904Z,55.61
2022-10-03T08:10:09.861Z,55.72
2022-10-03T08:14:17.900Z,55.85
2022-10-03T08:18:51.059Z,56.28
2022-10-03T08:21:39.809Z,56.51
2022-10-03T08:25:34.234Z,56.61
2022-10-03T08:29:13.607Z,56.98
2022-10-03T08:33:25.755Z,57.16
2022-10-03T08:37:56.725Z,57.19
2022-10-03T08:42:15.133Z,57.46
2022-10-03T08:46:17.248Z,57.70
2022-10-03T08:50:05.860Z,57.83
2022-10-03T08:54:21.572Z,58.01
2022-10-03T08:58:27.678Z,58.25
2022-10-03T09:02:32.162Z,58.49
2022-10-03T09:06:15.135Z,58.84
2022-10-03T09:10:15.784Z,59.05
2022-10-03T09:14:17.485Z,59.60
2022-10-03T09:18:34.418Z,60.17
2022-10-03T09:22:39.705Z,60.73
2022-10-03T09:26:53.819Z,60.77
2022-10-03T09:31:10.987Z,61.81
2022-10-03T09:34:46.349Z,63.24
2022-10-03T09:38:15.228Z,64.11
2022-10-03T09:42:19.212Z,63.77
2022-10-03T09:46:11.087Z,63.59
2022-10-03T09:50:18.056Z,63.58
2022-10-03T09:54:31.111Z,62.99
2022-10-03T09:58:07.655Z,62.33
2022-10-03T10:01:59.632Z,62.15
2022-10-03T10:05:57.636Z,62.17
2022-10-03T10:09:45.837Z,61.85
2022-10-03T10:14:06.283Z,61.45
2022-10-03T10:17:50.220Z,61.11
2022-10-03T10:21:52.357Z,60.67
2022-10-03T10:25:46.235Z,60.24
2022-10-03T10:29:50.212Z,59.88
2022-10-03T10:33:46.591Z,59.66
2022-10-03T10:38:00.725Z,59.36
2022-10-03T10:42:09.759Z,58.95
2022-10-03T10:46:26.876Z,58.74
2022-10-03T10:50:31.493Z,58.85
2022-10-03T10:54:29.155Z,58.69
2022-10-03T10:58:45.556Z,58.12
2022-10-03T11:02:10.593Z,57.95
2022-10-03T11:06:36.446Z,57.80
2022-10-03T11:10:23.709Z,57.78
2022-10-03T11:14:42.363Z,57.50
2022-10-03T11:18:44.722Z,57.22
2022-10-03T11:22:43.649Z,56.89
2022-10-03T11:26:42.422Z,56.86
2022-10-03T11:30:58.962Z,56.89
2022-10-03T11:35:33.779Z,56.94
2022-10-03T11:39:40.780Z,56.82
2022-10-03T11:43:42.534Z,56.75
2022-10-03T11:47:46.376Z,56.79
2022-10-03T11:51:51.511Z,56.93
2022-10-03T11:55:31.211Z,56.94
2022-10-03T11:59:33.415Z,56.70
2022-10-03T12:03:42.384Z,56.49
2022-10-03T12:07:00.160Z,56.13
2022-10-03T12:11:06.708Z,56.13
2022-10-03T12:14:42.751Z,56.08
2022-10-03T12:18:07.067Z,55.75
2022-10-03T12:22:29.884Z,55.64
2022-10-03T12:25:28.905Z,55.59
2022-10-03T12:29:14.411Z,55.36
2022-10-03T12:33:22.819Z,55.30
2022-10-03T12:37:40.451Z,55.29
2022-10-03T12:41:35.103Z,55.21
2022-10-03T12:45:14.194Z,55.28
2022-10-03T12:49:04.617Z,55.33
2022-10-03T12:53:12.611Z,55.35
2022-10-03T12:57:06.652Z,55.48
2022-10-03T13:01:00.343Z,55.55
2022-10-03T13:04:57.139Z,55.66
2022-10-03T13:08:38.963Z,56.20
2022-10-03T13:12:50.520Z,56.39
2022-10-03T13:16:29.582Z,56.66
2022-10-03T13:20:16.633Z,56.69
2022-10-03T13:24:09.984Z,56.67
2022-10-03T13:28:09.196Z,57.12
2022-10-03T13:31:59.141Z,57.74
2022-10-03T13:36:11.488Z,57.97
2022-10-03T13:39:55.144Z,57.90
2022-10-03T13:43:38.983Z,57.94
2022-10-03T13:47:51.836Z,58.17
2022-10-03T13:51:57.353Z,58.22
2022-10-03T13:55:39.944Z,58.23
2022-10-03T13:59:40.197Z,58.20
2022-10-03T14:03:20.548Z,58.22
2022-10-03T14:07:03.227Z,58.43
2022-10-03T14:11:14.241Z,58.69
2022-10-03T14:15:35.508Z,58.83
2022-10-03T14:19:18.290Z,59.05
2022-10-03T14:23:13.079Z,59.30
2022-10-03T14:27:36.051Z,59.44
2022-10-03T14:31:24.297Z,59.63
2022-10-03T14:35:34.124Z,59.91
2022-10-03T14:39:28.623Z,60.01
2022-10-03T14:43:36.808Z,60.13
2022-10-03T14:47:18.234Z,60.20
2022-10-03T14:51:23.075Z,60.15
2022-10-03T14:55:38.600Z,60.33
2022-10-03T14:59:32.249Z,60.76
2022-10-03T15:03:18.505Z,60.94
2022-10-03T15:06:57.729Z,61.14
2022-10-03T15:10:34.741Z,61.29
2022-10-03T15:14:13.528Z,61.39
2022-10-03T15:17:54.254Z,61.59
2022-10-03T15:21:31.844Z,61.81
2022-10-03T15:25:16.828Z,61.86
2022-10-03T15:28:55.474Z,62.12
2022-10-03T15:32:42.345Z,62.30
2022-10-03T15:36:25.773Z,62.46
2022-10-03T15:40:23.516Z,62.54
2022-10-03T15:44:30.155Z,62.90
2022-10-03T15:47:44.931Z,63.10
2022-10-03T15:51:30.236Z,63.23
2022-10-03T15:55:11.430Z,63.29
2022-10-03T15:58:52.076Z,63.30
2022-10-03T16:02:45.712Z,63.61
2022-10-03T16:06:35.561Z,63.66
2022-10-03T16:10:21.005Z,64.17
2022-10-03T16:14:10.083Z,64.39
2022-10-03T16:18:07.209Z,64.47
2022-10-03T16:22:13.020Z,64.34
2022-10-03T16:25:55.371Z,64.69
2022-10-03T16:29:37.232Z,64.94
2022-10-03T16:33:20.618Z,65.41
2022-10-03T16:36:59.728Z,65.59
2022-10-03T16:40:37.185Z,65.59
2022-10-03T16:44:26.096Z,65.90
2022-10-03T16:48:30.310Z,66.25
2022-10-03T16:52:13.870Z,66.60
2022-10-03T16:56:00.362Z,66.88
2022-10-03T16:59:40.238Z,67.26
2022-10-03T17:03:21.453Z,67.67
2022-10-03T17:07:01.794Z,67.69
2022-10-03T17:10:40.190Z,68.06
2022-10-03T17:14:19.671Z,68.43
2022-10-03T17:18:04.508Z,68.75
2022-10-03T17:21:47.386Z,69.00
2022-10-03T17:25:42.251Z,69.17
2022-10-03T17:29:45.712Z,69.55
2022-10-03T17:33:27.866Z,69.91
2022-10-03T17:37:22.723Z,69.99
2022-10-03T17:41:15.286Z,70.37
2022-10-03T17:45:12.596Z,70.53
2022-10-03T17:49:15.912Z,70.90
2022-10-03T17:52:55.225Z,71.17
2022-10-03T17:56:34.448Z,71.25
2022-10-03T18:00:19.766Z,71.40
2022-10-03T18:04:01.631Z,71.63
2022-10-03T18:07:39.566Z,72.07
2022-10-03T18:11:24.517Z,72.17
2022-10-03T18:15:38.814Z,72.43
2022-10-03T18:19:34.043Z,72.41
2022-10-03T18:23:36.774Z,72.81
2022-10-03T18:27:29.263Z,72.83
2022-10-03T18:31:15.931Z,73.13
2022-10-03T18:35:25.007Z,73.16
2022-10-03T18:39:34.093Z,73.44
2022-10-03T18:42:39.380Z,73.40
2022-10-03T18:46:20.007Z,73.60
2022-10-03T18:50:26.814Z,73.58
2022-10-03T18:54:15.191Z,73.97
2022-10-03T18:58:00.761Z,74.38
2022-10-03T19:01:49.015Z,74.40
2022-10-03T19:05:50.729Z,74.75
2022-10-03T19:09:30.081Z,74.51
2022-10-03T19:13:20.614Z,74.86
2022-10-03T19:17:16.897Z,75.20
2022-10-03T19:21:02.987Z,75.31
2022-10-03T19:24:57.987Z,75.29
2022-10-03T19:28:44.230Z,75.46
2022-10-03T19:32:45.844Z,75.49
2022-10-03T19:36:24.718Z,75.75
2022-10-03T19:40:02.014Z,75.55
2022-10-03T19:43:51.501Z,75.80
2022-10-03T19:47:36.987Z,75.96
2022-10-03T19:51:25.400Z,75.88
2022-10-03T19:55:14.617Z,76.04
2022-10-03T19:59:12.395Z,76.06
2022-10-03T20:03:17.203Z,76.05
2022-10-03T20:06:55.547Z,76.00
2022-10-03T20:10:44.481Z,75.95
2022-10-03T20:14:31.798Z,76.14
2022-10-03T20:18:14.624Z,76.24
2022-10-03T20:21:57.213Z,76.54
2022-10-03T20:25:41.426Z,76.80
2022-10-03T20:29:30.591Z,76.61
2022-10-03T20:33:08.337Z,76.71
2022-10-03T20:36:49.582Z,77.14
2022-10-03T20:40:48.419Z,76.92
2022-10-03T20:44:46.777Z,77.27
2022-10-03T20:48:28.544Z,77.17
2022-10-03T20:52:08.226Z,77.25
2022-10-03T20:56:12.313Z,77.63
2022-10-03T20:59:58.538Z,77.63
2022-10-03T21:03:52.633Z,77.73
2022-10-03T21:07:42.930Z,77.75
2022-10-03T21:11:26.369Z,77.82
2022-10-03T21:15:22.047Z,77.87
2022-10-03T21:19:05.516Z,77.74
2022-10-03T21:22:47.179Z,77.78
2022-10-03T21:26:29.470Z,77.85
2022-10-03T21:30:20.209Z,77.77
2022-10-03T21:34:07.953Z,77.65
2022-10-03T21:38:00.582Z,77.69
2022-10-03T21:41:47.811Z,77.76
2022-10-03T21:45:26.512Z,77.82
2022-10-03T21:49:47.644Z,77.82
2022-10-03T21:53:39.993Z,77.84
2022-10-03T21:57:31.339Z,77.70
2022-10-03T22:01:33.785Z,77.10
2022-10-03T22:05:34.438Z,76.59
2022-10-03T22:09:14.607Z,76.38
2022-10-03T22:13:00.195Z,76.16
2022-10-03T22:16:44.873Z,76.01
2022-10-03T22:20:24.687Z,76.03
2022-10-03T22:24:27.983Z,76.05
2022-10-03T22:28:19.731Z,76.05
2022-10-03T22:32:25.253Z,76.15
2022-10-03T22:36:04.015Z,76.20
2022-10-03T22:39:41.722Z,76.21
2022-10-03T22:43:19.427Z,76.22
2022-10-03T22:47:00.101Z,76.22
2022-10-03T22:50:40.492Z,76.23
2022-10-03T22:54:19.032Z,76.23
2022-10-03T22:57:57.310Z,76.31
2022-10-03T23:01:34.866Z,76.33
2022-10-03T23:05:34.574Z,76.44
2022-10-03T23:09:25.698Z,76.45
2022-10-03T23:13:19.637Z,76.48
2022-10-03T23:17:03.090Z,76.54
2022-10-03T23:21:02.941Z,76.55
2022-10-03T23:24:48.380Z,76.56
2022-10-03T23:28:24.130Z,76.60
2022-10-03T23:32:05.194Z,76.61
2022-10-03T23:35:45.004Z,76.55
2022-10-03T23:39:36.105Z,76.57
2022-10-03T23:43:27.618Z,76.68
2022-10-03T23:47:07.415Z,76.74
2022-10-03T23:50:51.388Z,76.84
2022-10-03T23:54:28.313Z,76.91
2022-10-03T23:58:36.913Z,77.01
